Time;durP1;ratioP1;P1;durP2;ratioP2;P2;SDS_P1;SDS_P2;PMS_P1;PMS_P2;Temp;Humidity;BMP_temperature;BMP_pressure;BME280_temperature;BME280_humidity;BME280_pressure;Samples;Min_cycle;Max_cycle;Signal;HPM_P1;HPM_P2
2022/03/17 00:01:49;;;;;;;12.10;9.50;;;;;;;;;;5057716;28;20059;-89
2022/03/17 00:04:14;;;;;;;14.57;9.50;;;;;;;;;;5056313;28;20406;-89
2022/03/17 00:06:41;;;;;;;15.77;10.52;;;;;;;;;;5052619;28;20063;-88
2022/03/17 00:09:07;;;;;;;14.68;10.52;;;;;;;;;;5065024;28;20032;-90
2022/03/17 00:11:34;;;;;;;15.88;9.13;;;;;;;;;;5056837;28;20488;-89
2022/03/17 00:14:01;;;;;;;15.75;10.43;;;;;;;;;;5054577;28;20028;-88
2022/03/17 00:16:28;;;;;;;15.68;9.60;;;;;;;;;;5060720;28;20039;-91
2022/03/17 00:18:55;;;;;;;16.25;9.93;;;;;;;;;;5061888;28;20104;-89
2022/03/17 00:21:21;;;;;;;13.85;10.07;;;;;;;;;;5054526;28;20056;-88
2022/03/17 00:23:46;;;;;;;14.75;11.02;;;;;;;;;;5060136;28;20519;-87
2022/03/17 00:26:11;;;;;;;15.90;10.30;;;;;;;;;;5063428;28;20048;-88
2022/03/17 00:28:37;;;;;;;17.67;10.50;;;;;;;;;;5062891;28;20035;-88
2022/03/17 00:31:02;;;;;;;17.00;11.05;;;;;;;;;;5059099;28;20498;-87
2022/03/17 00:33:28;;;;;;;15.77;10.63;;;;;;;;;;5066925;28;20127;-86
2022/03/17 00:35:53;;;;;;;19.05;11.45;;;;;;;;;;5063477;28;20024;-89
2022/03/17 00:38:19;;;;;;;17.75;11.52;;;;;;;;;;5060892;28;20032;-89
2022/03/17 00:40:46;;;;;;;14.95;10.43;;;;;;;;;;5064291;28;20024;-89
2022/03/17 00:43:14;;;;;;;16.50;12.02;;;;;;;;;;5052099;28;20078;-87
2022/03/17 00:45:42;;;;;;;15.02;10.52;;;;;;;;;;5058716;28;20449;-86
2022/03/17 00:48:07;;;;;;;17.55;11.02;;;;;;;;;;5065247;28;20431;-89
2022/03/17 00:50:34;;;;;;;21.73;11.98;;;;;;;;;;5063999;28;20029;-90
2022/03/17 00:53:00;;;;;;;18.48;12.20;;;;;;;;;;5062369;28;20077;-87
2022/03/17 00:55:26;;;;;;;17.40;10.95;;;;;;;;;;5062532;28;20045;-88
2022/03/17 00:57:52;;;;;;;16.15;11.13;;;;;;;;;;5050341;28;20071;-89
2022/03/17 01:00:18;;;;;;;19.25;12.00;;;;;;;;;;5053806;28;20037;-88
2022/03/17 01:02:56;;;;;;;18.40;11.00;;;;;;;;;;5053194;28;20032;-89
2022/03/17 01:05:22;;;;;;;17.17;10.65;;;;;;;;;;5064788;28;20567;-90
2022/03/17 01:07:50;;;;;;;19.33;12.38;;;;;;;;;;5057511;28;20120;-89
2022/03/17 01:10:16;;;;;;;14.23;9.35;;;;;;;;;;5060601;28;20068;-89
2022/03/17 01:12:46;;;;;;;14.57;10.80;;;;;;;;;;5057760;28;20108;-88
2022/03/17 01:15:14;;;;;;;14.85;9.63;;;;;;;;;;5061271;28;20032;-89
2022/03/17 01:17:40;;;;;;;13.75;9.68;;;;;;;;;;5060346;28;20032;-89
2022/03/17 01:20:06;;;;;;;16.25;11.30;;;;;;;;;;5069930;28;20430;-89
2022/03/17 01:22:33;;;;;;;14.63;9.65;;;;;;;;;;5065028;28;20036;-87
2022/03/17 01:24:58;;;;;;;10.70;7.75;;;;;;;;;;5066302;28;20135;-89
2022/03/17 01:27:25;;;;;;;11.25;7.88;;;;;;;;;;5061942;28;20093;-90
2022/03/17 01:29:51;;;;;;;10.70;7.88;;;;;;;;;;5072082;28;20032;-88
2022/03/17 01:32:18;;;;;;;12.05;8.10;;;;;;;;;;5069798;28;20124;-88
2022/03/17 01:34:43;;;;;;;13.30;7.32;;;;;;;;;;5074298;28;20082;-89
2022/03/17 01:37:09;;;;;;;12.65;7.80;;;;;;;;;;5069206;28;20488;-87
2022/03/17 01:39:36;;;;;;;12.25;8.52;;;;;;;;;;5066301;28;20381;-90
2022/03/17 01:42:04;;;;;;;13.05;8.95;;;;;;;;;;5062888;28;20079;-88
2022/03/17 01:44:30;;;;;;;13.02;8.95;;;;;;;;;;5061836;28;20025;-89
2022/03/17 01:49:39;;;;;;;13.70;8.98;;;;;;;;;;5060513;28;20039;-88
2022/03/17 01:52:05;;;;;;;14.57;10.35;;;;;;;;;;5057486;28;20025;-89
2022/03/17 01:54:32;;;;;;;14.18;9.43;;;;;;;;;;5067626;28;20117;-89
2022/03/17 01:56:58;;;;;;;13.52;10.20;;;;;;;;;;5061692;28;20120;-87
2022/03/17 01:59:26;;;;;;;12.48;8.68;;;;;;;;;;5062422;28;20021;-91
2022/03/17 02:01:53;;;;;;;12.18;9.32;;;;;;;;;;5066090;28;20335;-90
2022/03/17 02:04:19;;;;;;;8.68;7.45;;;;;;;;;;5061928;28;20033;-90
2022/03/17 02:06:44;;;;;;;13.32;8.45;;;;;;;;;;5061436;28;20036;-90
2022/03/17 02:09:10;;;;;;;11.88;8.80;;;;;;;;;;5065120;28;20037;-90
2022/03/17 02:14:22;;;;;;;10.32;7.53;;;;;;;;;;5057673;28;20110;-88
2022/03/17 02:16:51;;;;;;;10.15;7.05;;;;;;;;;;5064148;28;20036;-89
2022/03/17 02:19:18;;;;;;;8.23;6.72;;;;;;;;;;5060384;28;20021;-88
2022/03/17 02:21:48;;;;;;;9.70;6.95;;;;;;;;;;5066377;28;20060;-88
2022/03/17 02:26:59;;;;;;;12.38;9.38;;;;;;;;;;5058806;28;20040;-87
2022/03/17 02:29:25;;;;;;;13.23;8.88;;;;;;;;;;5073771;28;20067;-89
2022/03/17 02:31:51;;;;;;;13.93;8.52;;;;;;;;;;5061859;28;20083;-90
2022/03/17 02:34:17;;;;;;;11.90;8.38;;;;;;;;;;5062409;28;20021;-88
2022/03/17 02:36:49;;;;;;;9.95;7.38;;;;;;;;;;5065067;28;20033;-90
2022/03/17 02:39:16;;;;;;;10.60;7.13;;;;;;;;;;5063558;28;20032;-88
2022/03/17 02:41:42;;;;;;;8.70;6.28;;;;;;;;;;5052478;28;20071;-89
2022/03/17 02:44:09;;;;;;;9.90;6.68;;;;;;;;;;5052337;28;20025;-90
2022/03/17 02:46:34;;;;;;;9.38;6.38;;;;;;;;;;5054194;28;20115;-89
2022/03/17 02:49:01;;;;;;;10.40;6.50;;;;;;;;;;5057955;28;20163;-90
2022/03/17 02:51:26;;;;;;;7.50;5.57;;;;;;;;;;5064370;28;20503;-89
2022/03/17 02:53:52;;;;;;;8.88;6.05;;;;;;;;;;5054934;28;20021;-88
2022/03/17 02:56:17;;;;;;;7.15;5.90;;;;;;;;;;5060294;28;20116;-91
2022/03/17 02:58:44;;;;;;;7.10;5.25;;;;;;;;;;5057736;28;20032;-89
2022/03/17 03:01:09;;;;;;;7.85;5.35;;;;;;;;;;5052720;28;20082;-87
2022/03/17 03:03:35;;;;;;;9.57;6.13;;;;;;;;;;5064864;28;20025;-89
2022/03/17 03:06:01;;;;;;;8.00;4.72;;;;;;;;;;5058465;28;20469;-90
2022/03/17 03:08:27;;;;;;;8.40;6.15;;;;;;;;;;5052278;28;20021;-90
2022/03/17 03:10:53;;;;;;;7.13;4.63;;;;;;;;;;5051033;28;20037;-86
2022/03/17 03:13:19;;;;;;;7.38;4.07;;;;;;;;;;5054393;28;20051;-89
2022/03/17 03:15:44;;;;;;;6.40;4.38;;;;;;;;;;5053410;28;20036;-85
2022/03/17 03:18:10;;;;;;;5.80;4.53;;;;;;;;;;5062521;28;20028;-89
2022/03/17 03:20:37;;;;;;;6.85;4.78;;;;;;;;;;5060619;28;20111;-88
2022/03/17 03:23:03;;;;;;;6.07;4.28;;;;;;;;;;5059058;28;20032;-90
2022/03/17 03:25:28;;;;;;;6.25;4.43;;;;;;;;;;5058452;28;20027;-89
2022/03/17 03:27:54;;;;;;;5.95;4.45;;;;;;;;;;5061434;28;20047;-88
2022/03/17 03:30:20;;;;;;;6.50;5.45;;;;;;;;;;5059690;28;20446;-88
2022/03/17 03:32:47;;;;;;;6.47;4.90;;;;;;;;;;5066432;28;20028;-88
2022/03/17 03:37:58;;;;;;;6.32;4.82;;;;;;;;;;5054603;28;20039;-88
2022/03/17 03:40:24;;;;;;;6.80;4.45;;;;;;;;;;5055356;28;20488;-88
2022/03/17 03:42:50;;;;;;;8.23;5.30;;;;;;;;;;5054989;28;20024;-88
2022/03/17 03:45:15;;;;;;;6.57;4.78;;;;;;;;;;5065098;28;20025;-89
2022/03/17 03:47:41;;;;;;;7.00;4.55;;;;;;;;;;5055813;28;20032;-89
2022/03/17 03:50:07;;;;;;;6.25;4.40;;;;;;;;;;5060733;28;20376;-90
2022/03/17 03:52:32;;;;;;;5.25;4.05;;;;;;;;;;5061282;28;20024;-88
2022/03/17 03:54:58;;;;;;;5.97;4.43;;;;;;;;;;5058113;28;20043;-88
2022/03/17 03:57:24;;;;;;;6.30;4.38;;;;;;;;;;5068532;28;20031;-87
2022/03/17 03:59:50;;;;;;;7.03;5.05;;;;;;;;;;5061217;28;20024;-91
2022/03/17 04:02:15;;;;;;;7.72;5.13;;;;;;;;;;5061681;28;20039;-89
2022/03/17 04:04:41;;;;;;;7.95;5.18;;;;;;;;;;5060246;28;20029;-89
2022/03/17 04:07:10;;;;;;;7.78;5.38;;;;;;;;;;5051770;28;20162;-89
2022/03/17 04:09:39;;;;;;;8.90;6.05;;;;;;;;;;5053325;28;20045;-90
2022/03/17 04:12:09;;;;;;;8.93;5.85;;;;;;;;;;5057999;28;20052;-87
2022/03/17 04:14:35;;;;;;;;;;;;;;;;;;5066292;28;20021;-89
2022/03/17 04:17:01;;;;;;;9.52;6.07;;;;;;;;;;5060903;28;19916;-88
2022/03/17 04:19:27;;;;;;;9.05;6.75;;;;;;;;;;5064154;28;20036;-88
2022/03/17 04:21:53;;;;;;;9.10;5.50;;;;;;;;;;5069617;28;20042;-87
2022/03/17 04:24:19;;;;;;;8.77;5.82;;;;;;;;;;5062636;28;20028;-88
2022/03/17 04:26:45;;;;;;;20.02;13.77;;;;;;;;;;5050939;28;20025;-86
2022/03/17 04:29:12;;;;;;;37.50;25.27;;;;;;;;;;5056164;28;20071;-88
2022/03/17 04:31:38;;;;;;;49.97;33.70;;;;;;;;;;5063260;28;20113;-90
2022/03/17 04:34:05;;;;;;;41.80;33.55;;;;;;;;;;5064769;28;20076;-89
2022/03/17 04:36:31;;;;;;;18.98;14.80;;;;;;;;;;5056041;28;20050;-87
2022/03/17 04:39:01;;;;;;;13.82;10.40;;;;;;;;;;5054741;28;20458;-88
2022/03/17 04:41:27;;;;;;;13.15;11.10;;;;;;;;;;5060433;28;20472;-88
2022/03/17 04:43:52;;;;;;;14.18;9.40;;;;;;;;;;5052471;28;20112;-87
2022/03/17 04:46:18;;;;;;;9.88;7.10;;;;;;;;;;5066810;28;20100;-87
2022/03/17 04:48:44;;;;;;;11.10;6.65;;;;;;;;;;5067021;28;20039;-87
2022/03/17 04:51:09;;;;;;;12.13;7.60;;;;;;;;;;5059704;28;20428;-88
2022/03/17 04:53:35;;;;;;;10.82;7.43;;;;;;;;;;5056928;28;20094;-89
2022/03/17 04:56:05;;;;;;;10.05;7.53;;;;;;;;;;5061296;28;20028;-86
2022/03/17 04:58:33;;;;;;;10.65;7.47;;;;;;;;;;5067774;28;20016;-87
2022/03/17 05:01:00;;;;;;;10.88;7.35;;;;;;;;;;5059379;28;20037;-89
2022/03/17 05:03:27;;;;;;;10.60;7.20;;;;;;;;;;5066903;28;20380;-86
2022/03/17 05:05:53;;;;;;;12.98;6.80;;;;;;;;;;5046226;28;20057;-86
2022/03/17 05:08:19;;;;;;;8.15;6.25;;;;;;;;;;5051353;28;20116;-89
2022/03/17 05:10:47;;;;;;;10.10;6.93;;;;;;;;;;5057787;28;20496;-89
2022/03/17 05:13:14;;;;;;;10.55;7.95;;;;;;;;;;5054958;28;20029;-89
2022/03/17 05:15:40;;;;;;;10.25;7.38;;;;;;;;;;5051870;28;20059;-87
2022/03/17 05:18:07;;;;;;;9.85;6.90;;;;;;;;;;5069234;28;20024;-87
2022/03/17 05:20:37;;;;;;;13.45;6.95;;;;;;;;;;5052613;28;20457;-89
2022/03/17 05:23:03;;;;;;;;;;;;;;;;;;5052373;28;20104;-88
2022/03/17 05:25:30;;;;;;;10.07;6.07;;;;;;;;;;5048936;28;20357;-87
2022/03/17 05:27:55;;;;;;;9.70;6.10;;;;;;;;;;5055770;28;20477;-89
2022/03/17 05:30:21;;;;;;;8.32;5.95;;;;;;;;;;5068364;28;20189;-89
2022/03/17 05:32:47;;;;;;;9.40;6.28;;;;;;;;;;5065433;28;20032;-88
2022/03/17 05:35:14;;;;;;;9.70;6.50;;;;;;;;;;5063339;28;20032;-87
2022/03/17 05:37:40;;;;;;;8.93;5.53;;;;;;;;;;5060744;28;20392;-90
2022/03/17 05:40:10;;;;;;;9.25;6.00;;;;;;;;;;5053693;28;20462;-88
2022/03/17 05:42:36;;;;;;;10.50;6.65;;;;;;;;;;5068824;28;20182;-90
2022/03/17 05:45:03;;;;;;;8.52;5.68;;;;;;;;;;5053658;28;20029;-87
2022/03/17 05:47:40;;;;;;;11.77;7.80;;;;;;;;;;5053993;28;20057;-90
2022/03/17 05:50:09;;;;;;;11.85;8.13;;;;;;;;;;5059744;28;20025;-89
2022/03/17 05:52:42;;;;;;;10.65;6.75;;;;;;;;;;5064572;28;20420;-86
2022/03/17 05:55:09;;;;;;;8.90;6.15;;;;;;;;;;5058356;28;20028;-86
2022/03/17 05:57:39;;;;;;;9.85;6.55;;;;;;;;;;5055394;28;20115;-86
2022/03/17 06:00:07;;;;;;;9.52;5.95;;;;;;;;;;5059912;28;20461;-86
2022/03/17 06:02:34;;;;;;;10.63;6.80;;;;;;;;;;5060343;28;20033;-85
2022/03/17 06:05:00;;;;;;;11.02;7.63;;;;;;;;;;5053342;28;20029;-85
2022/03/17 06:07:25;;;;;;;8.23;5.82;;;;;;;;;;5052146;28;20416;-86
2022/03/17 06:09:51;;;;;;;8.38;5.13;;;;;;;;;;5072186;28;20512;-86
2022/03/17 06:12:16;;;;;;;12.68;8.13;;;;;;;;;;5065771;28;20112;-85
2022/03/17 06:14:42;;;;;;;16.05;10.40;;;;;;;;;;5053500;28;20029;-84
2022/03/17 06:17:09;;;;;;;13.80;8.63;;;;;;;;;;5049467;28;20059;-84
2022/03/17 06:19:34;;;;;;;12.52;8.63;;;;;;;;;;5051216;28;20538;-84
2022/03/17 06:22:00;;;;;;;9.60;6.93;;;;;;;;;;5052663;28;20025;-83
2022/03/17 06:24:25;;;;;;;9.02;6.68;;;;;;;;;;5053570;28;20021;-85
2022/03/17 06:26:51;;;;;;;7.45;5.25;;;;;;;;;;5045732;28;20060;-84
2022/03/17 06:29:17;;;;;;;6.57;4.72;;;;;;;;;;5052780;28;20055;-85
2022/03/17 06:31:42;;;;;;;7.22;5.22;;;;;;;;;;5061314;28;20128;-88
2022/03/17 06:34:15;;;;;;;5.68;3.78;;;;;;;;;;5067881;28;20064;-88
2022/03/17 06:36:40;;;;;;;7.60;5.30;;;;;;;;;;5060180;28;20102;-87
2022/03/17 06:39:06;;;;;;;6.85;4.97;;;;;;;;;;5071037;28;20473;-89
2022/03/17 06:41:31;;;;;;;8.55;6.85;;;;;;;;;;5055708;28;20020;-86
2022/03/17 06:43:57;;;;;;;7.30;4.50;;;;;;;;;;5053909;28;20032;-86
2022/03/17 06:46:22;;;;;;;6.88;4.72;;;;;;;;;;5051030;28;20037;-88
2022/03/17 06:48:48;;;;;;;6.88;4.95;;;;;;;;;;5060598;28;20176;-83
2022/03/17 06:51:13;;;;;;;7.00;5.10;;;;;;;;;;5056131;28;20024;-88
2022/03/17 06:53:39;;;;;;;6.50;4.40;;;;;;;;;;5053473;28;20388;-86
2022/03/17 06:56:04;;;;;;;6.65;4.45;;;;;;;;;;5064912;28;20031;-86
2022/03/17 06:58:30;;;;;;;6.47;4.63;;;;;;;;;;5068705;28;20021;-87
2022/03/17 07:00:57;;;;;;;6.20;4.28;;;;;;;;;;5053332;28;20029;-86
2022/03/17 07:03:22;;;;;;;7.63;4.43;;;;;;;;;;5053504;28;20036;-85
2022/03/17 07:05:47;;;;;;;6.30;4.70;;;;;;;;;;5070599;28;20093;-89
2022/03/17 07:08:13;;;;;;;4.03;2.83;;;;;;;;;;5063717;28;20034;-89
2022/03/17 07:10:38;;;;;;;7.70;5.78;;;;;;;;;;5067702;28;20048;-86
2022/03/17 07:13:04;;;;;;;6.88;4.68;;;;;;;;;;5056360;28;20083;-86
2022/03/17 07:15:29;;;;;;;5.03;3.10;;;;;;;;;;5062510;28;20074;-86
2022/03/17 07:17:55;;;;;;;7.20;4.20;;;;;;;;;;5059478;28;20108;-88
2022/03/17 07:20:20;;;;;;;8.05;5.60;;;;;;;;;;5057728;28;20017;-86
2022/03/17 07:22:49;;;;;;;7.50;4.85;;;;;;;;;;5056760;28;20032;-87
2022/03/17 07:25:17;;;;;;;14.90;8.57;;;;;;;;;;5061072;28;20097;-89
2022/03/17 07:27:45;;;;;;;29.70;19.98;;;;;;;;;;5065962;28;20036;-86
2022/03/17 07:30:22;;;;;;;10.30;6.07;;;;;;;;;;5063079;28;20037;-86
2022/03/17 07:32:59;;;;;;;8.70;5.63;;;;;;;;;;5060784;28;20033;-89
2022/03/17 07:35:26;;;;;;;7.47;5.60;;;;;;;;;;5064578;28;20052;-89
2022/03/17 07:37:52;;;;;;;8.88;5.95;;;;;;;;;;5066707;28;20049;-89
2022/03/17 07:40:19;;;;;;;8.07;5.68;;;;;;;;;;5067847;28;20051;-89
2022/03/17 07:42:44;;;;;;;8.30;6.53;;;;;;;;;;5068461;28;20051;-87
2022/03/17 07:45:11;;;;;;;10.23;7.53;;;;;;;;;;5059816;28;20029;-87
2022/03/17 07:47:47;;;;;;;8.80;6.80;;;;;;;;;;5049234;28;20041;-88
2022/03/17 07:50:13;;;;;;;16.77;10.82;;;;;;;;;;5052199;28;20032;-89
2022/03/17 07:52:39;;;;;;;15.13;10.30;;;;;;;;;;5060159;28;20108;-87
2022/03/17 07:55:06;;;;;;;10.55;8.20;;;;;;;;;;5049366;28;20112;-87
2022/03/17 07:57:32;;;;;;;20.38;12.63;;;;;;;;;;5056601;28;20075;-88
2022/03/17 07:59:58;;;;;;;24.20;15.07;;;;;;;;;;5049527;28;20378;-88
2022/03/17 08:02:24;;;;;;;11.93;8.48;;;;;;;;;;5048874;28;21214;-88
2022/03/17 08:04:50;;;;;;;12.65;8.77;;;;;;;;;;5051647;28;20025;-90
2022/03/17 08:07:16;;;;;;;9.82;7.18;;;;;;;;;;5052317;28;20468;-87
2022/03/17 08:09:42;;;;;;;8.70;6.53;;;;;;;;;;5049240;28;20091;-89
2022/03/17 08:12:08;;;;;;;10.55;7.68;;;;;;;;;;5053417;28;20453;-89
2022/03/17 08:14:33;;;;;;;11.52;8.35;;;;;;;;;;5051341;28;20033;-89
2022/03/17 08:16:59;;;;;;;42.97;26.75;;;;;;;;;;5049613;28;20469;-88
2022/03/17 08:19:24;;;;;;;24.75;17.75;;;;;;;;;;5053005;28;20032;-89
2022/03/17 08:21:50;;;;;;;17.45;12.27;;;;;;;;;;5057085;28;20025;-89
2022/03/17 08:24:15;;;;;;;10.68;8.35;;;;;;;;;;5054939;28;20388;-88
2022/03/17 08:26:41;;;;;;;12.95;8.65;;;;;;;;;;5053931;28;20025;-89
2022/03/17 08:29:06;;;;;;;12.88;8.32;;;;;;;;;;5050051;28;20026;-89
2022/03/17 08:31:32;;;;;;;11.35;8.10;;;;;;;;;;5050345;28;20032;-88
2022/03/17 08:33:58;;;;;;;13.88;8.95;;;;;;;;;;5054903;28;20039;-90
2022/03/17 08:36:25;;;;;;;12.88;9.60;;;;;;;;;;5055220;28;20029;-89
2022/03/17 08:38:51;;;;;;;11.90;9.23;;;;;;;;;;5049769;28;20053;-88
2022/03/17 08:41:18;;;;;;;15.32;10.18;;;;;;;;;;5054028;28;20526;-87
2022/03/17 08:43:43;;;;;;;12.52;9.82;;;;;;;;;;5052362;28;20043;-88
2022/03/17 08:51:37;;;;;;;14.25;9.55;;;;;;;;;;5056504;28;20040;-88
2022/03/17 08:54:02;;;;;;;19.27;11.57;;;;;;;;;;5060541;28;20025;-87
2022/03/17 08:56:28;;;;;;;14.43;9.02;;;;;;;;;;5062953;28;20373;-86
2022/03/17 08:58:54;;;;;;;11.40;8.13;;;;;;;;;;5061161;28;20055;-86
2022/03/17 09:01:20;;;;;;;12.18;7.85;;;;;;;;;;5069405;28;20029;-87
2022/03/17 09:03:45;;;;;;;8.13;6.32;;;;;;;;;;5060723;28;20028;-86
2022/03/17 09:06:12;;;;;;;9.55;6.32;;;;;;;;;;5056823;28;20496;-84
2022/03/17 09:08:40;;;;;;;10.27;6.78;;;;;;;;;;5057485;28;20028;-85
2022/03/17 09:11:05;;;;;;;8.88;6.13;;;;;;;;;;5063025;28;20064;-84
2022/03/17 09:13:32;;;;;;;9.15;6.60;;;;;;;;;;5052693;28;20131;-85
2022/03/17 09:15:58;;;;;;;8.45;6.18;;;;;;;;;;5058153;28;20031;-84
2022/03/17 09:18:23;;;;;;;8.15;5.50;;;;;;;;;;5057058;28;20033;-84
2022/03/17 09:20:49;;;;;;;8.70;5.97;;;;;;;;;;5062651;28;20028;-85
2022/03/17 09:23:16;;;;;;;10.65;7.85;;;;;;;;;;5050787;28;20025;-85
2022/03/17 09:25:41;;;;;;;10.52;8.30;;;;;;;;;;5052614;28;20114;-84
2022/03/17 09:28:07;;;;;;;12.48;9.07;;;;;;;;;;5051812;28;20033;-85
2022/03/17 09:30:34;;;;;;;12.82;8.27;;;;;;;;;;5055389;28;20028;-84
2022/03/17 09:33:01;;;;;;;12.20;8.20;;;;;;;;;;5049923;28;20044;-84
2022/03/17 09:35:27;;;;;;;12.25;8.88;;;;;;;;;;5052219;28;20025;-83
2022/03/17 09:37:53;;;;;;;16.67;11.23;;;;;;;;;;5065074;28;20028;-84
2022/03/17 09:40:18;;;;;;;14.02;9.00;;;;;;;;;;5050285;28;20020;-85
2022/03/17 09:42:44;;;;;;;13.05;9.98;;;;;;;;;;5050907;28;20061;-85
2022/03/17 09:45:10;;;;;;;13.18;8.80;;;;;;;;;;5062302;28;20036;-86
2022/03/17 09:47:38;;;;;;;14.05;9.57;;;;;;;;;;5057680;28;20032;-84
2022/03/17 09:50:07;;;;;;;13.88;10.32;;;;;;;;;;5052006;28;20032;-86
2022/03/17 09:52:36;;;;;;;17.95;11.50;;;;;;;;;;5050617;28;20036;-86
2022/03/17 09:55:03;;;;;;;14.40;9.52;;;;;;;;;;5057529;28;20143;-83
2022/03/17 09:57:29;;;;;;;12.95;8.65;;;;;;;;;;5051874;28;20396;-86
2022/03/17 09:59:58;;;;;;;11.07;8.07;;;;;;;;;;5053913;28;20032;-85
2022/03/17 10:02:25;;;;;;;12.43;7.43;;;;;;;;;;5055793;28;20131;-86
2022/03/17 10:04:51;;;;;;;14.52;7.93;;;;;;;;;;5058925;28;20273;-85
2022/03/17 10:07:18;;;;;;;12.50;9.07;;;;;;;;;;5050268;28;20035;-85
2022/03/17 10:09:45;;;;;;;11.50;9.50;;;;;;;;;;5049072;28;20064;-85
2022/03/17 10:12:12;;;;;;;13.75;9.00;;;;;;;;;;5053182;28;20040;-87
2022/03/17 10:14:43;;;;;;;13.27;9.80;;;;;;;;;;5061008;28;20032;-84
2022/03/17 10:17:39;;;;;;;10.90;8.27;;;;;;;;;;5055206;28;20111;-84
2022/03/17 10:20:34;;;;;;;9.95;7.07;;;;;;;;;;5053670;28;20024;-87
2022/03/17 10:23:01;;;;;;;11.10;7.95;;;;;;;;;;5052000;28;20021;-85
2022/03/17 10:25:32;;;;;;;10.48;7.68;;;;;;;;;;5052779;28;20702;-84
2022/03/17 10:27:58;;;;;;;13.23;8.52;;;;;;;;;;5051378;28;20029;-84
2022/03/17 10:30:33;;;;;;;13.48;9.57;;;;;;;;;;5056291;28;20028;-86
2022/03/17 10:33:03;;;;;;;13.65;9.45;;;;;;;;;;5059858;28;20108;-85
2022/03/17 10:35:36;;;;;;;;;;;;;;;;;;5050425;28;20033;-86
2022/03/17 10:38:12;;;;;;;10.05;8.15;;;;;;;;;;5057389;28;19921;-86
2022/03/17 10:40:39;;;;;;;13.95;10.70;;;;;;;;;;5054215;28;20424;-85
2022/03/17 10:43:19;;;;;;;12.63;9.00;;;;;;;;;;5054336;28;20029;-86
2022/03/17 10:45:45;;;;;;;13.80;8.25;;;;;;;;;;5050977;28;20591;-85
2022/03/17 10:48:12;;;;;;;15.05;8.52;;;;;;;;;;5047369;28;20036;-81
2022/03/17 10:50:43;;;;;;;9.98;7.80;;;;;;;;;;5049020;28;20033;-82
2022/03/17 10:53:10;;;;;;;10.38;7.85;;;;;;;;;;5053586;28;20509;-83
2022/03/17 10:55:38;;;;;;;12.73;9.15;;;;;;;;;;5055147;28;20078;-85
2022/03/17 10:58:16;;;;;;;13.77;9.65;;;;;;;;;;5057347;28;20480;-82
2022/03/17 11:00:58;;;;;;;13.30;9.65;;;;;;;;;;5050624;28;20355;-82
2022/03/17 11:03:24;;;;;;;16.95;10.38;;;;;;;;;;5052600;28;20021;-83
2022/03/17 11:05:53;;;;;;;10.77;9.18;;;;;;;;;;5053793;28;20033;-83
2022/03/17 11:08:22;;;;;;;12.10;8.50;;;;;;;;;;5050213;28;20032;-82
2022/03/17 11:10:49;;;;;;;13.30;9.32;;;;;;;;;;5051560;28;20037;-85
2022/03/17 11:13:15;;;;;;;12.52;8.73;;;;;;;;;;5056394;28;20078;-84
2022/03/17 11:16:04;;;;;;;9.20;7.00;;;;;;;;;;5061106;28;20111;-83
2022/03/17 11:18:33;;;;;;;7.90;6.28;;;;;;;;;;5053262;28;20536;-85
2022/03/17 11:21:25;;;;;;;6.78;5.82;;;;;;;;;;5051766;28;20033;-83
2022/03/17 11:23:56;;;;;;;8.00;6.13;;;;;;;;;;5058051;28;20425;-84
2022/03/17 11:26:27;;;;;;;6.65;5.40;;;;;;;;;;5061739;28;20115;-87
2022/03/17 11:29:02;;;;;;;7.80;6.28;;;;;;;;;;5060963;28;20075;-84
2022/03/17 11:31:27;;;;;;;6.88;5.50;;;;;;;;;;5055926;28;20052;-82
2022/03/17 11:33:59;;;;;;;7.10;5.72;;;;;;;;;;5054791;28;20067;-84
2022/03/17 11:36:24;;;;;;;7.07;6.10;;;;;;;;;;5053566;28;20111;-84
2022/03/17 11:39:02;;;;;;;7.20;5.45;;;;;;;;;;5062629;28;20099;-84
2022/03/17 11:41:31;;;;;;;7.38;5.75;;;;;;;;;;5062801;28;20111;-84
2022/03/17 11:43:56;;;;;;;7.93;6.20;;;;;;;;;;5048558;28;20044;-83
2022/03/17 11:46:35;;;;;;;6.88;5.32;;;;;;;;;;5057044;28;20028;-83
2022/03/17 11:49:17;;;;;;;6.72;5.22;;;;;;;;;;5050684;28;20029;-86
2022/03/17 11:52:03;;;;;;;7.68;5.35;;;;;;;;;;5051458;28;20064;-85
2022/03/17 11:54:31;;;;;;;7.50;4.82;;;;;;;;;;5050272;28;20059;-83
2022/03/17 11:57:04;;;;;;;6.93;5.38;;;;;;;;;;5046000;28;20028;-83
2022/03/17 11:59:52;;;;;;;6.22;4.90;;;;;;;;;;5051926;28;20031;-83
2022/03/17 12:02:19;;;;;;;7.32;5.55;;;;;;;;;;5051116;28;20040;-85
2022/03/17 12:04:50;;;;;;;7.53;5.95;;;;;;;;;;5054792;28;20492;-84
2022/03/17 12:07:20;;;;;;;6.07;5.13;;;;;;;;;;5062214;28;20021;-85
2022/03/17 12:09:46;;;;;;;6.95;4.78;;;;;;;;;;5061889;28;20051;-84
2022/03/17 12:12:17;;;;;;;6.10;4.95;;;;;;;;;;5066816;28;20036;-83
2022/03/17 12:14:57;;;;;;;5.32;4.45;;;;;;;;;;5049395;28;20101;-84
2022/03/17 12:17:24;;;;;;;5.97;4.68;;;;;;;;;;5049048;28;20024;-83
2022/03/17 12:20:07;;;;;;;6.75;4.60;;;;;;;;;;5054273;28;20029;-84
2022/03/17 12:22:39;;;;;;;6.22;5.50;;;;;;;;;;5048201;28;20033;-84
2022/03/17 12:25:21;;;;;;;7.05;4.82;;;;;;;;;;5057915;28;20024;-84
2022/03/17 12:28:04;;;;;;;6.00;4.47;;;;;;;;;;5050095;28;20040;-84
2022/03/17 12:30:30;;;;;;;7.03;5.15;;;;;;;;;;5053224;28;20039;-84
2022/03/17 12:33:01;;;;;;;6.85;5.25;;;;;;;;;;5052268;28;20598;-85
2022/03/17 12:35:31;;;;;;;6.43;4.72;;;;;;;;;;5057802;28;20024;-85
2022/03/17 12:38:06;;;;;;;6.10;4.95;;;;;;;;;;5061702;28;20103;-85
2022/03/17 12:40:43;;;;;;;6.95;5.60;;;;;;;;;;5047189;28;20032;-84
2022/03/17 12:43:13;;;;;;;7.25;5.40;;;;;;;;;;5049799;28;20027;-85
2022/03/17 12:45:39;;;;;;;7.40;5.18;;;;;;;;;;5051614;28;20485;-84
2022/03/17 12:48:09;;;;;;;7.90;5.95;;;;;;;;;;5049396;28;20031;-85
2022/03/17 12:50:34;;;;;;;10.52;7.18;;;;;;;;;;5048834;28;20039;-85
2022/03/17 12:53:00;;;;;;;7.57;5.75;;;;;;;;;;5049709;28;20041;-85
2022/03/17 12:55:26;;;;;;;7.05;5.32;;;;;;;;;;5059614;28;20078;-84
2022/03/17 12:57:52;;;;;;;6.85;5.30;;;;;;;;;;5058955;28;20068;-85
2022/03/17 13:00:23;;;;;;;6.53;5.45;;;;;;;;;;5057454;28;20497;-85
2022/03/17 13:02:57;;;;;;;6.28;5.05;;;;;;;;;;5057325;28;20042;-85
2022/03/17 13:08:09;;;;;;;8.88;6.05;;;;;;;;;;5044522;28;20051;-84
2022/03/17 13:16:06;;;;;;;6.97;5.35;;;;;;;;;;5053779;28;20086;-85
2022/03/17 13:18:43;;;;;;;7.10;5.25;;;;;;;;;;5048288;28;20028;-84
2022/03/17 13:21:13;;;;;;;8.65;5.63;;;;;;;;;;5047900;28;20037;-84
2022/03/17 13:23:39;;;;;;;;;;;;;;;;;;5048213;28;20036;-85
2022/03/17 13:26:04;;;;;;;9.10;6.10;;;;;;;;;;5050470;28;19913;-85
2022/03/17 13:28:30;;;;;;;8.05;6.07;;;;;;;;;;5053574;28;20029;-85
2022/03/17 13:30:56;;;;;;;9.30;6.28;;;;;;;;;;5063472;28;20089;-85
2022/03/17 13:33:33;;;;;;;9.30;6.50;;;;;;;;;;5048622;28;20025;-85
2022/03/17 13:35:59;;;;;;;8.48;6.63;;;;;;;;;;5060354;28;20518;-85
2022/03/17 13:38:34;;;;;;;8.55;6.15;;;;;;;;;;5059083;28;20024;-84
2022/03/17 13:41:00;;;;;;;11.63;6.30;;;;;;;;;;5060383;28;20101;-85
2022/03/17 13:43:28;;;;;;;8.93;5.88;;;;;;;;;;5058591;28;20025;-84
2022/03/17 13:45:55;;;;;;;9.70;6.60;;;;;;;;;;5056320;28;20136;-85
2022/03/17 13:48:31;;;;;;;9.88;6.40;;;;;;;;;;5055231;28;20349;-85
2022/03/17 13:51:01;;;;;;;9.23;6.60;;;;;;;;;;5055307;28;20036;-85
2022/03/17 13:53:34;;;;;;;10.63;7.50;;;;;;;;;;5047702;28;20020;-86
2022/03/17 13:56:06;;;;;;;10.82;7.35;;;;;;;;;;5065258;28;20028;-85
2022/03/17 13:58:45;;;;;;;9.82;6.95;;;;;;;;;;5050165;28;20465;-84
2022/03/17 14:01:15;;;;;;;10.20;7.00;;;;;;;;;;5058525;28;20082;-85
2022/03/17 14:04:00;;;;;;;9.85;6.50;;;;;;;;;;5047519;28;20021;-85
2022/03/17 14:06:33;;;;;;;11.10;7.43;;;;;;;;;;5055561;28;20060;-82
2022/03/17 14:09:08;;;;;;;10.75;7.53;;;;;;;;;;5045969;28;20082;-83
2022/03/17 14:11:36;;;;;;;10.98;7.90;;;;;;;;;;5051208;28;20049;-83
2022/03/17 14:14:07;;;;;;;13.50;8.65;;;;;;;;;;5048489;28;20487;-84
2022/03/17 14:16:35;;;;;;;12.10;8.05;;;;;;;;;;5058665;28;20467;-87
2022/03/17 14:19:02;;;;;;;13.27;8.52;;;;;;;;;;5045375;28;20024;-87
2022/03/17 14:21:29;;;;;;;13.35;9.10;;;;;;;;;;5049529;28;20028;-86
2022/03/17 14:24:11;;;;;;;14.63;7.45;;;;;;;;;;5051103;28;20424;-88
2022/03/17 14:26:42;;;;;;;11.70;7.78;;;;;;;;;;5043774;28;20044;-86
2022/03/17 14:29:09;;;;;;;11.95;8.05;;;;;;;;;;5047494;28;20500;-86
2022/03/17 14:31:37;;;;;;;12.70;7.82;;;;;;;;;;5049496;28;20469;-83
2022/03/17 14:34:04;;;;;;;9.82;6.95;;;;;;;;;;5050867;28;20036;-85
2022/03/17 14:36:31;;;;;;;10.38;7.53;;;;;;;;;;5055560;28;20499;-82
2022/03/17 14:38:58;;;;;;;11.10;7.63;;;;;;;;;;5047994;28;20024;-81
2022/03/17 14:41:24;;;;;;;12.20;7.50;;;;;;;;;;5043250;28;20037;-84
2022/03/17 14:43:52;;;;;;;12.07;7.72;;;;;;;;;;5044400;28;20112;-83
2022/03/17 14:46:20;;;;;;;12.45;7.70;;;;;;;;;;5046877;28;20037;-84
2022/03/17 14:48:45;;;;;;;11.32;7.70;;;;;;;;;;5047851;28;20029;-85
2022/03/17 14:51:12;;;;;;;13.35;8.32;;;;;;;;;;5045157;28;20024;-83
2022/03/17 14:53:39;;;;;;;13.73;8.18;;;;;;;;;;5042984;28;20039;-87
2022/03/17 14:56:09;;;;;;;11.05;7.53;;;;;;;;;;5047738;28;20115;-83
2022/03/17 14:58:48;;;;;;;11.20;7.15;;;;;;;;;;5045110;28;20070;-85
2022/03/17 15:01:16;;;;;;;13.30;8.70;;;;;;;;;;5077471;28;20551;-85
2022/03/17 15:03:43;;;;;;;14.18;8.63;;;;;;;;;;5045054;28;20461;-83
2022/03/17 15:06:11;;;;;;;10.68;6.93;;;;;;;;;;5045686;28;20499;-87